createdAt,value
2018-03-25T00:00:20.101Z,23.48
2018-03-25T00:02:47.077Z,20.95
2018-03-25T00:05:13.306Z,23.60
2018-03-25T00:07:40.272Z,23.48
2018-03-25T00:10:06.506Z,25.23
2018-03-25T00:12:32.779Z,23.70
2018-03-25T00:14:58.994Z,22.25
2018-03-25T00:17:25.200Z,24.60
2018-03-25T00:19:51.434Z,21.85
2018-03-25T00:22:17.664Z,23.45
2018-03-25T00:24:43.896Z,23.05
2018-03-25T00:27:10.106Z,24.92
2018-03-25T00:29:36.599Z,21.67
2018-03-25T00:32:02.846Z,25.55
2018-03-25T00:34:29.066Z,24.37
2018-03-25T00:36:55.298Z,23.75
2018-03-25T00:39:21.522Z,25.73
2018-03-25T00:41:47.779Z,22.98
2018-03-25T00:44:14.015Z,23.58
2018-03-25T00:46:40.527Z,23.77
2018-03-25T00:49:06.820Z,26.40
2018-03-25T00:51:33.047Z,22.30
2018-03-25T00:53:59.291Z,22.98
2018-03-25T00:56:25.495Z,21.92
2018-03-25T00:58:51.729Z,22.23
2018-03-25T01:01:17.953Z,22.85
2018-03-25T01:03:45.200Z,22.33
2018-03-25T01:06:11.464Z,24.58
2018-03-25T01:08:38.427Z,25.70
2018-03-25T01:11:05.433Z,24.58
2018-03-25T01:13:31.669Z,23.98
2018-03-25T01:16:09.411Z,23.27
2018-03-25T01:18:35.656Z,22.80
2018-03-25T01:21:01.905Z,25.33
2018-03-25T01:23:28.934Z,22.52
2018-03-25T01:25:55.148Z,23.38
2018-03-25T01:28:21.390Z,23.17
2018-03-25T01:30:47.611Z,22.02
2018-03-25T01:33:13.847Z,22.48
2018-03-25T01:35:40.049Z,23.60
2018-03-25T01:38:06.275Z,24.35
2018-03-25T01:40:32.501Z,22.73
2018-03-25T01:42:58.707Z,24.37
2018-03-25T01:45:24.939Z,25.77
2018-03-25T01:47:51.235Z,24.40
2018-03-25T01:50:17.483Z,23.80
2018-03-25T01:52:43.707Z,22.95
2018-03-25T01:55:09.931Z,26.50
2018-03-25T01:57:36.165Z,25.92
2018-03-25T02:00:02.428Z,41.45
2018-03-25T02:02:28.665Z,31.23
2018-03-25T02:04:54.879Z,28.27
2018-03-25T02:07:21.118Z,26.48
2018-03-25T02:09:47.335Z,23.77
2018-03-25T02:12:14.309Z,23.40
2018-03-25T02:14:40.522Z,24.20
2018-03-25T02:17:06.717Z,24.02
2018-03-25T02:19:33.215Z,24.75
2018-03-25T02:22:00.173Z,23.45
2018-03-25T02:24:27.118Z,23.75
2018-03-25T02:26:53.340Z,23.48
2018-03-25T02:29:19.556Z,22.90
2018-03-25T02:31:46.040Z,24.65
2018-03-25T02:34:12.247Z,24.42
2018-03-25T02:36:38.447Z,21.62
2018-03-25T02:39:04.723Z,22.23
2018-03-25T02:41:30.947Z,22.73
2018-03-25T02:43:57.535Z,24.15
2018-03-25T02:46:23.747Z,25.58
2018-03-25T02:48:50.044Z,25.02
2018-03-25T02:51:16.256Z,27.33
2018-03-25T02:53:42.478Z,30.05
2018-03-25T02:56:08.734Z,30.20
2018-03-25T02:58:34.940Z,27.58
2018-03-25T03:01:01.553Z,26.65
2018-03-25T03:03:28.506Z,35.80
2018-03-25T03:05:55.485Z,35.28
2018-03-25T03:08:22.459Z,32.65
2018-03-25T03:10:48.683Z,27.67
2018-03-25T03:13:14.958Z,28.38
2018-03-25T03:15:41.200Z,25.58
2018-03-25T03:18:07.453Z,26.00
2018-03-25T03:20:33.690Z,24.58
2018-03-25T03:22:59.903Z,22.77
2018-03-25T03:25:26.123Z,23.52
2018-03-25T03:27:52.351Z,22.83
2018-03-25T03:30:19.333Z,21.67
2018-03-25T03:32:45.560Z,21.73
2018-03-25T03:35:11.808Z,23.38
2018-03-25T03:37:38.017Z,27.87
2018-03-25T03:40:04.996Z,35.15
2018-03-25T03:42:31.230Z,26.25
2018-03-25T03:44:58.176Z,32.83
2018-03-25T03:47:25.214Z,37.13
2018-03-25T03:49:51.415Z,25.35
2018-03-25T03:52:18.010Z,24.30
2018-03-25T03:54:44.204Z,26.35
2018-03-25T03:57:10.415Z,26.20
2018-03-25T03:59:37.393Z,25.50
2018-03-25T04:02:03.615Z,24.37
2018-03-25T04:04:29.847Z,24.95
2018-03-25T04:06:56.807Z,23.30
2018-03-25T04:09:23.807Z,22.90
2018-03-25T04:11:50.036Z,24.25
2018-03-25T04:14:16.245Z,21.65
2018-03-25T04:16:43.214Z,23.20
2018-03-25T04:19:09.442Z,22.87
2018-03-25T04:21:36.419Z,24.50
2018-03-25T04:24:02.645Z,21.70
2018-03-25T04:26:29.593Z,21.23
2018-03-25T04:28:56.563Z,23.73
2018-03-25T04:31:23.518Z,22.27
2018-03-25T04:33:50.479Z,20.88
2018-03-25T04:36:16.693Z,22.42
2018-03-25T04:38:43.947Z,20.50
2018-03-25T04:41:10.157Z,21.70
2018-03-25T04:43:36.365Z,22.40
2018-03-25T04:46:02.603Z,20.20
2018-03-25T04:48:28.918Z,20.67
2018-03-25T04:50:55.444Z,21.33
2018-03-25T04:53:21.665Z,21.83
2018-03-25T04:55:47.875Z,20.27
2018-03-25T04:58:14.086Z,19.17
2018-03-25T05:00:40.289Z,22.25
2018-03-25T05:03:06.510Z,21.10
2018-03-25T05:05:32.741Z,22.17
2018-03-25T05:07:58.957Z,21.52
2018-03-25T05:10:25.973Z,19.67
2018-03-25T05:12:52.210Z,24.70
2018-03-25T05:15:18.440Z,21.87
2018-03-25T05:17:44.648Z,22.25
2018-03-25T05:20:11.979Z,28.17
2018-03-25T05:22:38.212Z,22.37
2018-03-25T05:25:04.448Z,20.70
2018-03-25T05:27:31.418Z,22.42
2018-03-25T05:29:57.647Z,20.95
2018-03-25T05:32:23.878Z,18.98
2018-03-25T05:34:50.100Z,20.88
2018-03-25T05:37:16.324Z,21.25
2018-03-25T05:39:42.544Z,20.80
2018-03-25T05:42:09.490Z,20.25
2018-03-25T05:44:35.725Z,20.33
2018-03-25T05:47:02.004Z,19.45
2018-03-25T05:49:28.300Z,20.23
2018-03-25T05:51:54.520Z,20.52
2018-03-25T05:54:20.718Z,20.73
2018-03-25T05:56:46.946Z,20.00
2018-03-25T05:59:13.952Z,22.73
2018-03-25T06:01:40.193Z,21.85
2018-03-25T06:04:06.412Z,22.58
2018-03-25T06:06:32.657Z,21.60
2018-03-25T06:08:58.880Z,21.67
2018-03-25T06:11:25.117Z,22.35
2018-03-25T06:13:51.364Z,21.60
2018-03-25T06:16:17.574Z,26.05
2018-03-25T06:18:43.824Z,24.60
2018-03-25T06:21:10.805Z,22.20
2018-03-25T06:23:37.421Z,23.90
2018-03-25T06:26:04.393Z,23.52
2018-03-25T06:28:31.068Z,28.75
2018-03-25T06:30:57.317Z,24.12
2018-03-25T06:33:23.537Z,23.98
2018-03-25T06:35:49.769Z,25.55
2018-03-25T06:38:16.741Z,23.73
2018-03-25T06:40:42.951Z,24.37
2018-03-25T06:43:09.939Z,22.30
2018-03-25T06:45:36.159Z,24.20
2018-03-25T06:48:03.509Z,25.12
2018-03-25T06:50:29.745Z,23.92
2018-03-25T06:52:55.977Z,22.35
2018-03-25T06:55:22.255Z,23.80
2018-03-25T06:57:48.481Z,23.60
2018-03-25T07:00:15.453Z,28.23
2018-03-25T07:02:42.409Z,29.45
2018-03-25T07:05:09.366Z,29.40
2018-03-25T07:07:36.364Z,27.95
2018-03-25T07:10:02.616Z,27.67
2018-03-25T07:12:28.910Z,25.52
2018-03-25T07:14:55.138Z,26.25
2018-03-25T07:17:22.110Z,23.17
2018-03-25T07:19:48.357Z,24.50
2018-03-25T07:22:14.559Z,27.60
2018-03-25T07:24:40.798Z,28.55
2018-03-25T07:27:07.008Z,26.30
2018-03-25T07:29:33.228Z,25.48
2018-03-25T07:31:59.445Z,25.23
2018-03-25T07:34:26.392Z,24.40
2018-03-25T07:36:53.362Z,24.70
2018-03-25T07:39:20.318Z,24.55
2018-03-25T07:41:47.320Z,26.10
2018-03-25T07:44:13.546Z,24.27
2018-03-25T07:46:39.797Z,25.20
2018-03-25T07:49:06.037Z,25.05
2018-03-25T07:51:32.327Z,25.23
2018-03-25T07:53:59.397Z,23.42
2018-03-25T07:56:33.160Z,23.00
2018-03-25T07:58:59.394Z,23.00
2018-03-25T08:01:32.444Z,24.08
2018-03-25T08:03:58.696Z,23.52
2018-03-25T08:06:25.668Z,22.60
2018-03-25T08:08:51.886Z,24.87
2018-03-25T08:11:18.882Z,26.23
2018-03-25T08:13:45.128Z,23.92
2018-03-25T08:16:11.374Z,23.02
2018-03-25T08:18:37.592Z,22.52
2018-03-25T08:21:03.840Z,23.55
2018-03-25T08:23:30.055Z,22.87
2018-03-25T08:25:57.032Z,22.30
2018-03-25T08:28:23.256Z,22.35
2018-03-25T08:30:50.248Z,21.05
2018-03-25T08:33:16.496Z,23.12
2018-03-25T08:35:42.710Z,24.33
2018-03-25T08:38:09.235Z,22.20
2018-03-25T08:40:36.176Z,22.55
2018-03-25T08:43:02.394Z,23.70
2018-03-25T08:45:28.631Z,19.58
2018-03-25T08:47:54.843Z,21.08
2018-03-25T08:50:21.096Z,20.15
2018-03-25T08:52:48.089Z,20.95
2018-03-25T08:55:14.299Z,19.35
2018-03-25T08:57:40.515Z,20.27
2018-03-25T09:00:06.803Z,19.70
2018-03-25T09:02:33.049Z,20.65
2018-03-25T09:04:59.261Z,19.42
2018-03-25T09:07:25.485Z,20.35
2018-03-25T09:09:51.697Z,19.85
2018-03-25T09:12:18.678Z,20.70
2018-03-25T09:14:44.905Z,19.42
2018-03-25T09:17:11.177Z,18.92
2018-03-25T09:19:37.428Z,19.10
2018-03-25T09:22:03.706Z,20.80
2018-03-25T09:24:29.909Z,20.50
2018-03-25T09:26:56.138Z,19.25
2018-03-25T09:29:22.376Z,21.42
2018-03-25T09:31:48.625Z,20.17
2018-03-25T09:34:14.853Z,19.37
2018-03-25T09:36:41.074Z,21.15
2018-03-25T09:39:07.331Z,20.50
2018-03-25T09:41:33.554Z,20.35
2018-03-25T09:43:59.790Z,21.23
2018-03-25T09:46:26.747Z,19.62
2018-03-25T09:48:53.255Z,20.30
2018-03-25T09:51:19.503Z,19.35
2018-03-25T09:53:45.788Z,20.20
2018-03-25T09:56:12.082Z,20.80
2018-03-25T09:58:38.315Z,17.92
2018-03-25T10:01:10.680Z,19.65
2018-03-25T10:03:36.914Z,21.62
2018-03-25T10:06:03.184Z,19.70
2018-03-25T10:08:29.404Z,19.58
2018-03-25T10:10:55.690Z,19.15
2018-03-25T10:13:21.927Z,19.42
2018-03-25T10:15:48.884Z,16.42
2018-03-25T10:18:15.872Z,18.65
2018-03-25T10:20:42.106Z,18.42
2018-03-25T10:23:08.347Z,19.52
2018-03-25T10:25:35.445Z,19.65
2018-03-25T10:28:01.686Z,18.60
2018-03-25T10:30:27.933Z,18.25
2018-03-25T10:32:54.168Z,19.20
2018-03-25T10:35:20.396Z,17.67
2018-03-25T10:37:46.633Z,17.95
2018-03-25T10:40:12.874Z,17.98
2018-03-25T10:42:39.162Z,19.70
2018-03-25T10:45:05.392Z,17.70
2018-03-25T10:47:31.643Z,19.43
2018-03-25T10:49:57.862Z,19.30
2018-03-25T10:52:25.570Z,20.43
2018-03-25T10:54:52.566Z,19.10
2018-03-25T10:57:18.810Z,18.80
2018-03-25T10:59:45.038Z,17.77
2018-03-25T11:02:11.257Z,17.83
2018-03-25T11:04:37.508Z,19.03
2018-03-25T11:07:04.471Z,19.00
2018-03-25T11:09:30.717Z,16.57
2018-03-25T11:11:56.934Z,17.20
2018-03-25T11:14:23.917Z,15.90
2018-03-25T11:16:50.155Z,17.07
2018-03-25T11:19:16.409Z,16.50
2018-03-25T11:21:42.673Z,16.83
2018-03-25T11:24:08.920Z,15.40
2018-03-25T11:26:35.485Z,16.53
2018-03-25T11:29:08.736Z,15.70
2018-03-25T11:31:34.985Z,16.07
2018-03-25T11:34:01.237Z,14.73
2018-03-25T11:36:27.479Z,15.60
2018-03-25T11:38:53.716Z,16.10
2018-03-25T11:41:19.957Z,15.00
2018-03-25T11:43:46.249Z,14.83
2018-03-25T11:46:13.217Z,15.10
2018-03-25T11:48:40.216Z,15.47
2018-03-25T11:51:07.202Z,14.77
2018-03-25T11:53:33.443Z,15.90
2018-03-25T11:55:59.696Z,15.60
2018-03-25T11:58:25.913Z,14.90
2018-03-25T12:00:52.132Z,17.67
2018-03-25T12:03:19.126Z,15.10
2018-03-25T12:05:45.354Z,14.63
2018-03-25T12:08:11.618Z,16.23
2018-03-25T12:10:38.608Z,15.20
2018-03-25T12:13:04.844Z,15.70
2018-03-25T12:15:31.056Z,16.07
2018-03-25T12:17:58.076Z,16.30
2018-03-25T12:20:24.373Z,15.13
2018-03-25T12:22:51.334Z,17.73
2018-03-25T12:25:17.700Z,16.23
2018-03-25T12:27:43.970Z,18.00
2018-03-25T12:30:10.193Z,18.20
2018-03-25T12:32:36.452Z,17.13
2018-03-25T12:35:02.745Z,17.07
2018-03-25T12:37:28.966Z,16.63
2018-03-25T12:39:55.938Z,16.00
2018-03-25T12:42:22.188Z,16.47
2018-03-25T12:44:48.413Z,16.07
2018-03-25T12:47:15.482Z,16.53
2018-03-25T12:49:41.708Z,17.57
2018-03-25T12:52:08.702Z,15.43
2018-03-25T12:54:34.949Z,14.53
2018-03-25T12:57:01.197Z,15.50
2018-03-25T12:59:27.448Z,16.87
2018-03-25T13:01:53.686Z,15.20
2018-03-25T13:04:19.944Z,15.43
2018-03-25T13:06:46.192Z,14.57
2018-03-25T13:09:12.440Z,15.00
2018-03-25T13:11:38.691Z,15.57
2018-03-25T13:14:05.659Z,15.57
2018-03-25T13:16:32.639Z,14.43
2018-03-25T13:18:58.927Z,16.63
2018-03-25T13:21:25.166Z,15.17
2018-03-25T13:23:51.432Z,14.20
2018-03-25T13:26:18.689Z,14.20
2018-03-25T13:28:45.687Z,14.60
2018-03-25T13:31:12.005Z,13.00
2018-03-25T13:33:38.245Z,15.60
2018-03-25T13:36:05.225Z,13.73
2018-03-25T13:38:31.500Z,13.70
2018-03-25T13:40:57.711Z,13.93
2018-03-25T13:43:23.973Z,13.60
2018-03-25T13:45:50.247Z,13.70
2018-03-25T13:48:17.244Z,14.80
2018-03-25T13:50:43.501Z,13.50
2018-03-25T13:53:09.723Z,15.70
2018-03-25T13:55:36.041Z,12.67
2018-03-25T13:58:03.057Z,16.43
2018-03-25T14:00:29.316Z,16.87
2018-03-25T14:02:55.535Z,15.17
2018-03-25T14:05:21.760Z,15.03
2018-03-25T14:07:48.042Z,13.57
2018-03-25T14:10:14.284Z,15.53
2018-03-25T14:12:40.525Z,14.07
2018-03-25T14:15:06.740Z,13.77
2018-03-25T14:17:33.006Z,13.93
2018-03-25T14:19:59.252Z,14.73
2018-03-25T14:22:25.478Z,16.53
2018-03-25T14:24:51.731Z,15.40
2018-03-25T14:27:17.948Z,16.07
2018-03-25T14:29:44.232Z,14.40
2018-03-25T14:32:11.282Z,14.50
2018-03-25T14:34:38.278Z,15.07
2018-03-25T14:37:04.539Z,15.67
2018-03-25T14:39:30.758Z,15.70
2018-03-25T14:41:57.044Z,16.87
2018-03-25T14:44:23.254Z,15.10
2018-03-25T14:46:49.550Z,16.63
2018-03-25T14:49:16.522Z,15.00
2018-03-25T14:51:42.815Z,17.00
2018-03-25T14:54:09.048Z,16.40
2018-03-25T14:56:35.338Z,16.23
2018-03-25T14:59:01.556Z,16.77
2018-03-25T15:01:27.781Z,15.57
2018-03-25T15:03:54.048Z,15.60
2018-03-25T15:06:21.046Z,14.77
2018-03-25T15:08:47.320Z,16.50
2018-03-25T15:11:13.586Z,15.77
2018-03-25T15:13:40.570Z,14.93
2018-03-25T15:16:06.854Z,15.97
2018-03-25T15:18:33.082Z,16.27
2018-03-25T15:20:59.385Z,15.17
2018-03-25T15:23:25.624Z,14.60
2018-03-25T15:25:51.913Z,15.70
2018-03-25T15:28:18.203Z,14.00
2018-03-25T15:30:44.508Z,15.63
2018-03-25T15:33:10.782Z,15.07
2018-03-25T15:35:37.805Z,15.10
2018-03-25T15:38:04.147Z,18.00
2018-03-25T15:40:31.127Z,16.00
2018-03-25T15:42:57.367Z,15.00
2018-03-25T15:45:23.645Z,15.23
2018-03-25T15:47:49.883Z,14.67
2018-03-25T15:50:16.120Z,16.33
2018-03-25T15:52:42.343Z,18.97
2018-03-25T15:55:09.326Z,14.90
2018-03-25T15:57:35.619Z,16.63
2018-03-25T16:00:01.876Z,16.87
2018-03-25T16:02:28.896Z,17.43
2018-03-25T16:04:55.113Z,16.03
2018-03-25T16:07:21.616Z,18.90
2018-03-25T16:09:47.900Z,18.63
2018-03-25T16:12:14.849Z,16.70
2018-03-25T16:14:41.105Z,14.67
2018-03-25T16:17:07.373Z,19.43
2018-03-25T16:19:34.384Z,14.30
2018-03-25T16:22:00.664Z,14.10
2018-03-25T16:24:26.908Z,14.93
2018-03-25T16:26:53.149Z,18.03
2018-03-25T16:29:19.375Z,15.53
2018-03-25T16:31:45.626Z,14.33
2018-03-25T16:34:11.871Z,14.07
2018-03-25T16:36:38.112Z,16.73
2018-03-25T16:39:04.371Z,13.10
2018-03-25T16:41:30.875Z,15.23
2018-03-25T16:43:57.112Z,15.40
2018-03-25T16:46:23.364Z,14.30
2018-03-25T16:48:49.601Z,15.30
2018-03-25T16:51:15.880Z,13.60
2018-03-25T16:53:42.139Z,18.80
2018-03-25T16:56:09.131Z,14.90
2018-03-25T16:58:35.419Z,14.10
2018-03-25T17:01:01.789Z,13.80
2018-03-25T17:03:28.780Z,15.47
2018-03-25T17:05:55.066Z,13.97
2018-03-25T17:08:21.343Z,14.93
2018-03-25T17:10:47.601Z,14.87
2018-03-25T17:13:13.836Z,14.63
2018-03-25T17:15:40.083Z,14.53
2018-03-25T17:18:06.327Z,19.27
2018-03-25T17:20:32.575Z,16.10
2018-03-25T17:22:58.801Z,15.00
2018-03-25T17:25:25.035Z,18.20
2018-03-25T17:27:51.263Z,16.80
2018-03-25T17:30:18.305Z,12.97
2018-03-25T17:32:45.287Z,13.10
2018-03-25T17:35:11.532Z,12.50
2018-03-25T17:37:37.773Z,12.60
2018-03-25T17:40:04.149Z,11.27
2018-03-25T17:42:30.413Z,13.00
2018-03-25T17:44:56.659Z,12.80
2018-03-25T17:47:22.935Z,12.82
2018-03-25T17:49:49.198Z,11.43
2018-03-25T17:52:15.492Z,13.15
2018-03-25T17:54:42.528Z,12.20
2018-03-25T17:57:08.860Z,12.13
2018-03-25T17:59:35.137Z,13.77
2018-03-25T18:02:02.160Z,12.05
2018-03-25T18:04:28.502Z,12.43
2018-03-25T18:06:54.752Z,11.00
2018-03-25T18:09:21.028Z,13.45
2018-03-25T18:11:48.048Z,11.48
2018-03-25T18:14:14.336Z,12.75
2018-03-25T18:16:40.627Z,12.68
2018-03-25T18:19:06.920Z,11.52
2018-03-25T18:21:33.220Z,12.20
2018-03-25T18:23:59.516Z,13.05
2018-03-25T18:26:26.043Z,13.60
2018-03-25T18:28:53.038Z,11.50
2018-03-25T18:31:19.352Z,11.32
2018-03-25T18:33:46.378Z,12.57
2018-03-25T18:36:12.666Z,13.55
2018-03-25T18:38:38.958Z,12.20
2018-03-25T18:41:05.304Z,12.70
2018-03-25T18:43:31.882Z,13.32
2018-03-25T18:45:58.954Z,12.30
2018-03-25T18:48:25.256Z,13.50
2018-03-25T18:50:51.553Z,12.50
2018-03-25T18:53:17.897Z,14.98
2018-03-25T18:55:44.229Z,13.55
2018-03-25T18:58:10.532Z,13.45
2018-03-25T19:00:37.212Z,13.80
2018-03-25T19:03:04.262Z,13.85
2018-03-25T19:05:31.302Z,13.05
2018-03-25T19:07:57.675Z,13.80
2018-03-25T19:10:23.971Z,13.88
2018-03-25T19:12:50.277Z,14.25
2018-03-25T19:15:16.556Z,14.05
2018-03-25T19:17:43.126Z,12.55
2018-03-25T19:20:09.467Z,12.68
2018-03-25T19:22:35.783Z,13.52
2018-03-25T19:25:02.198Z,13.30
2018-03-25T19:27:29.261Z,13.13
2018-03-25T19:29:55.830Z,12.43
2018-03-25T19:32:22.179Z,14.13
2018-03-25T19:34:48.448Z,13.90
2018-03-25T19:37:14.786Z,14.00
2018-03-25T19:39:41.068Z,13.77
2018-03-25T19:42:07.408Z,14.18
2018-03-25T19:44:33.679Z,15.88
2018-03-25T19:46:59.947Z,15.15
2018-03-25T19:49:26.265Z,17.77
2018-03-25T19:51:52.569Z,16.37
2018-03-25T19:54:18.897Z,16.02
2018-03-25T19:56:46.013Z,14.68
2018-03-25T19:59:12.357Z,15.30
2018-03-25T20:01:38.676Z,15.02
2018-03-25T20:04:04.991Z,17.05
2018-03-25T20:06:32.020Z,14.20
2018-03-25T20:08:58.394Z,14.63
2018-03-25T20:11:24.647Z,15.82
2018-03-25T20:13:50.978Z,14.95
2018-03-25T20:16:17.320Z,14.00
2018-03-25T20:18:44.390Z,15.45
2018-03-25T20:21:10.703Z,15.93
2018-03-25T20:23:37.764Z,15.93
2018-03-25T20:26:04.810Z,16.00
2018-03-25T20:28:31.148Z,16.92
2018-03-25T20:30:57.568Z,17.17
2018-03-25T20:33:23.989Z,18.52
2018-03-25T20:35:50.261Z,16.67
2018-03-25T20:38:17.349Z,17.05
2018-03-25T20:40:43.661Z,18.90
2018-03-25T20:43:10.028Z,19.05
2018-03-25T20:45:36.328Z,18.48
2018-03-25T20:48:02.638Z,17.80
2018-03-25T20:50:29.712Z,23.17
2018-03-25T20:52:57.904Z,20.37
2018-03-25T20:55:24.398Z,19.85
2018-03-25T20:57:50.644Z,20.90
2018-03-25T21:00:16.908Z,20.70
2018-03-25T21:02:43.940Z,23.08
2018-03-25T21:05:10.191Z,25.15
2018-03-25T21:07:36.447Z,25.42
2018-03-25T21:10:02.701Z,22.23
2018-03-25T21:12:29.797Z,20.73
2018-03-25T21:14:56.975Z,21.12
2018-03-25T21:17:23.222Z,23.92
2018-03-25T21:19:49.492Z,20.75
2018-03-25T21:22:16.453Z,20.90
2018-03-25T21:24:43.220Z,22.15
2018-03-25T21:27:10.195Z,21.83
2018-03-25T21:29:36.800Z,22.37
2018-03-25T21:32:03.144Z,22.10
2018-03-25T21:34:29.383Z,21.10
2018-03-25T21:36:55.611Z,22.33
2018-03-25T21:39:22.075Z,27.00
2018-03-25T21:41:48.491Z,27.65
2018-03-25T21:44:14.719Z,26.40
2018-03-25T21:46:40.979Z,26.62
2018-03-25T21:49:07.227Z,26.85
2018-03-25T21:51:34.950Z,25.60
2018-03-25T21:54:01.185Z,24.45
2018-03-25T21:56:28.146Z,20.37
2018-03-25T21:58:54.392Z,22.00
2018-03-25T22:01:21.283Z,24.02
2018-03-25T22:03:47.531Z,23.33
2018-03-25T22:06:13.756Z,23.15
2018-03-25T22:08:39.999Z,19.75
2018-03-25T22:11:06.980Z,21.12
2018-03-25T22:13:33.216Z,23.30
2018-03-25T22:15:59.445Z,22.48
2018-03-25T22:18:29.676Z,22.58
2018-03-25T22:20:55.920Z,21.17
2018-03-25T22:23:22.176Z,21.37
2018-03-25T22:25:48.411Z,22.73
2018-03-25T22:28:14.688Z,22.48
2018-03-25T22:30:41.696Z,20.75
2018-03-25T22:33:07.944Z,21.33
2018-03-25T22:35:34.173Z,20.00
2018-03-25T22:38:00.755Z,22.05
2018-03-25T22:40:26.959Z,23.83
2018-03-25T22:42:53.197Z,19.60
2018-03-25T22:45:20.918Z,23.25
2018-03-25T22:47:47.145Z,22.10
2018-03-25T22:50:13.691Z,20.70
2018-03-25T22:52:39.948Z,20.60
2018-03-25T22:55:06.158Z,21.67
2018-03-25T22:57:32.705Z,23.02
2018-03-25T22:59:59.101Z,20.83
2018-03-25T23:02:25.337Z,21.23
2018-03-25T23:04:52.295Z,24.35
2018-03-25T23:07:18.523Z,22.00
2018-03-25T23:09:45.505Z,21.85
2018-03-25T23:12:11.740Z,23.55
2018-03-25T23:14:37.977Z,24.20
2018-03-25T23:17:04.207Z,23.55
2018-03-25T23:19:31.184Z,23.62
2018-03-25T23:21:57.418Z,19.92
2018-03-25T23:24:23.646Z,20.98
2018-03-25T23:26:50.613Z,20.10
2018-03-25T23:29:16.850Z,19.60
2018-03-25T23:31:43.858Z,20.50
2018-03-25T23:34:10.091Z,18.62
2018-03-25T23:36:36.293Z,19.65
2018-03-25T23:39:02.595Z,19.35
2018-03-25T23:41:28.803Z,20.75
2018-03-25T23:43:55.020Z,19.00
2018-03-25T23:46:21.255Z,21.15
2018-03-25T23:48:47.469Z,20.20
2018-03-25T23:51:13.701Z,20.55
2018-03-25T23:53:39.921Z,20.30
2018-03-25T23:56:06.168Z,20.12
2018-03-25T23:58:32.390Z,20.83
